Aviation Digital Data Service (ADDS)

Output produced by METARs form (2114 UTC 27 May 2017)
found at http://aviationweather.gov/adds/metars/
 
KSLK 271739Z 2718/2818 VRB03KT P6SM BKN035 
     FM280000 VRB03KT P6SM SKC 
     FM280600 00000KT 3SM BR SCT001 
     TEMPO 2807/2811 1/4SM FG VV001 
     FM281400 VRB03KT P6SM FEW040